Terminal Aerodrome Forecast
Issued by NWS

Home | Current Version | Previous Version | Graphics & Text | Print | Product List | Glossary On
Versions: 1 2 3 4 5 6 7 8 9 10 11 12 13 14 15 16 17 18 19 20 21 22 23
000
FTUS43 KABR 072037 AAB
TAFATY
TAF AMD
KATY 072037Z 0721/0818 29022G31KT 6SM -SHSN BKN015
      TEMPO 0721/0724 2SM BLSN
     FM080100 31017G27KT P6SM OVC030
     FM081700 31016G23KT P6SM BKN035=

USA.gov is the U.S. government's official web portal to all federal, state and local government web resources and services.